AirNav   Duncan Aviation - Near you to keep you flying
 
 1518 users online  

NV42 Heritage Airport
Jean, Nevada, USA

GOING TO JEAN?


FAA INFORMATION EFFECTIVE 04 NOVEMBER 2021

Location

FAA Identifier: NV42
Lat/Long: 35-46-32.9120N 115-37-53.0200W
35-46.548533N 115-37.883667W
35.7758089,-115.6313944
(estimated)
Elevation: 2575 ft. / 785 m (estimated)
Variation: 14E (1985)
From city: 15 miles W of JEAN, NV
Time zone: UTC -7 (UTC -8 during Standard Time)
Zip code: 92364

Airport Operations

Airport use: Private use, PERSONAL USE.
Activation date: 02/1991
Control tower: no
ARTCC: LOS ANGELES CENTER
FSS: RENO FLIGHT SERVICE STATION
Attendance: UNATNDD
Wind indicator: yes
Segmented circle: no

Nearby radio navigation aids

VOR radial/distance  VOR name  Freq  Var
LASr216/29.3LAS VEGAS VORTAC116.9015E
BLDr236/39.6BOULDER CITY VORTAC116.7015E

Airport Services

Runway Information

Runway 2/20

Dimensions: 3300 x 50 ft. / 1006 x 15 m
Surface: dirt
RUNWAY 2  RUNWAY 20
Traffic pattern: rightleft

Airport Ownership and Management from official FAA records

Ownership: Privately-owned
Owner: HUGH HERITAGE
7326 N 79TH LANE
GLENDALE, AZ 85303
Phone (623) 680-1530
Manager: TIMOTHY HERITAGE
7326 N 79TH LANE
GLENDALE, AZ 85303
Phone 623-680-1530

Airport Operational Statistics

Aircraft based on the field: 1
Single engine airplanes: 1
    

Additional Remarks

ELECTRIC UTILITY POLES/WIRES 60 FT AGL 1 NM SOUTH OF RY 02 & 2 NM NORTH OF RY 20.
CHECK RWY CONDITIONS PRIOR TO USE. ARPT SUBJECT TO FLASH FLOODING AND SEVERE EROSION.
FOR CD CTC LAS VEGAS APCH AT 725-200-4432.

Instrument Procedures

There are no published instrument procedures at NV42.

Some nearby airports with instrument procedures:

KHND - Henderson Executive Airport (27 nm NE)
KLAS - Harry Reid International Airport (30 nm NE)
KVGT - North Las Vegas Airport (34 nm NE)
KBVU - Boulder City Municipal Airport (39 nm E)
KLSV - Nellis Air Force Base (40 nm NE)
 
Loc | Ops | Rwys | IFR | FBO | Links
Com | Nav | Svcs | Stats | Notes
Area around NV42 (Heritage Airport)
 
Road maps at: MapQuest Bing Google
 
Aerial photo
No photo
 
Sectional chart

 
Airport distance calculator
Flying to Heritage Airport? Find the distance to fly.

From to NV42

Sunrise and sunset
Times for 01-Dec-2021
 Local
(UTC-8)
 Zulu
(UTC)
Morning civil twilight06:0714:07
Sunrise06:3514:35
Sunset16:2800:28
Evening civil twilight16:5600:56

Current date and time
Zulu (UTC)  01-Dec-2021 21:10:58
Local (UTC-8)  01-Dec-2021 13:10:58
 
METAR
KHND 
27nm NE 
012056Z 35008KT 10SM CLR 22/M08 A3022 RMK AO2 SLP243 T02171078 56027
KLAS 
30nm NE 
012056Z 00000KT 10SM FEW250 23/M09 A3020 RMK AO2 SLP214 T02281089 57027
KVGT 
33nm NE 
012053Z 11003KT 10SM CLR 23/M08 A3019 RMK AO2 SLP228 T02331078 56025
KBVU 
39nm E 
012055Z AUTO 05008KT 10SM CLR 23/M09 A3019 RMK AO2
KLSV 
40nm NE 
012058Z AUTO 00000KT 10SM CLR 25/M08 A3018 RMK AO2 SLPNO T02451079 57029 $
KINS 
48nm N 
012058Z AUTO 00000KT 10SM CLR 21/M11 A3022 RMK AO2 SLP213 T02141115 57030 $
TAF
KHND 
27nm NE 
011731Z 0118/0218 04006KT P6SM FEW250 FM020200 18007KT P6SM SKC FM021500 VRB05KT P6SM SCT250
KLAS 
30nm NE 
011731Z 0118/0224 VRB04KT P6SM FEW250 FM011900 03007KT P6SM FEW250 FM020100 24006KT P6SM SKC FM021400 VRB04KT P6SM SCT250 FM022000 05007KT P6SM SCT250
KVGT 
33nm NE 
011731Z 0118/0218 36006KT P6SM FEW250 FM012000 VRB05KT P6SM FEW250 FM020200 32007KT P6SM SKC FM021200 VRB04KT P6SM SCT250
NOTAMs
Click for the latest NOTAMs
NOTAMs are issued by the DoD/FAA and will open in a separate window not controlled by AirNav.

 

 
 

Would you like to see your business listed on this page?

 If your business provides an interesting product or service to pilots, flight crews, aircraft, or users of the Heritage Airport, you should consider listing it here.  To start the listing process, click on the button below
 
Add a business
 

Other Pages about Heritage Airport

Update a link
 
Copyright © AirNav, LLC. All rights reserved. Privacy Policy  Contact